sensor_id;sensor_type;location;lat;lon;timestamp;P1;durP1;ratioP1;P2;durP2;ratioP2
6723;SDS011;3399;52.530;13.304;2023-10-09T00:01:04;4.50;;;2.03;;
6723;SDS011;3399;52.530;13.304;2023-10-09T00:03:40;3.10;;;1.93;;
6723;SDS011;3399;52.530;13.304;2023-10-09T00:06:06;2.07;;;1.80;;
6723;SDS011;3399;52.530;13.304;2023-10-09T00:08:32;3.67;;;2.50;;
6723;SDS011;3399;52.530;13.304;2023-10-09T00:11:00;3.97;;;2.20;;
6723;SDS011;3399;52.530;13.304;2023-10-09T00:13:40;3.50;;;2.33;;
6723;SDS011;3399;52.530;13.304;2023-10-09T00:16:18;3.73;;;2.37;;
6723;SDS011;3399;52.530;13.304;2023-10-09T00:18:49;4.37;;;2.80;;
6723;SDS011;3399;52.530;13.304;2023-10-09T00:21:16;6.60;;;2.33;;
6723;SDS011;3399;52.530;13.304;2023-10-09T00:23:45;2.43;;;1.73;;
6723;SDS011;3399;52.530;13.304;2023-10-09T00:26:17;2.43;;;2.20;;
6723;SDS011;3399;52.530;13.304;2023-10-09T00:28:45;3.43;;;2.37;;
6723;SDS011;3399;52.530;13.304;2023-10-09T00:31:12;4.87;;;2.23;;
6723;SDS011;3399;52.530;13.304;2023-10-09T00:33:44;3.17;;;2.07;;
6723;SDS011;3399;52.530;13.304;2023-10-09T00:36:10;3.10;;;2.50;;
6723;SDS011;3399;52.530;13.304;2023-10-09T00:38:39;4.50;;;2.30;;
6723;SDS011;3399;52.530;13.304;2023-10-09T00:41:09;3.17;;;1.90;;
6723;SDS011;3399;52.530;13.304;2023-10-09T00:43:36;2.77;;;2.17;;
6723;SDS011;3399;52.530;13.304;2023-10-09T00:46:02;2.63;;;1.90;;
6723;SDS011;3399;52.530;13.304;2023-10-09T00:48:48;2.67;;;2.33;;
6723;SDS011;3399;52.530;13.304;2023-10-09T00:51:16;5.20;;;2.10;;
6723;SDS011;3399;52.530;13.304;2023-10-09T00:53:50;4.23;;;2.47;;
6723;SDS011;3399;52.530;13.304;2023-10-09T00:56:18;2.20;;;2.00;;
6723;SDS011;3399;52.530;13.304;2023-10-09T00:58:46;5.33;;;2.27;;
6723;SDS011;3399;52.530;13.304;2023-10-09T01:01:20;3.73;;;2.50;;
6723;SDS011;3399;52.530;13.304;2023-10-09T01:03:51;3.87;;;2.17;;
6723;SDS011;3399;52.530;13.304;2023-10-09T01:06:16;3.83;;;2.37;;
6723;SDS011;3399;52.530;13.304;2023-10-09T01:08:46;3.80;;;2.50;;
6723;SDS011;3399;52.530;13.304;2023-10-09T01:11:31;2.97;;;2.40;;
6723;SDS011;3399;52.530;13.304;2023-10-09T01:13:57;2.67;;;1.87;;
6723;SDS011;3399;52.530;13.304;2023-10-09T01:16:36;4.30;;;2.30;;
6723;SDS011;3399;52.530;13.304;2023-10-09T01:19:03;2.67;;;2.07;;
6723;SDS011;3399;52.530;13.304;2023-10-09T01:21:38;3.20;;;2.60;;
6723;SDS011;3399;52.530;13.304;2023-10-09T01:24:04;2.93;;;1.87;;
6723;SDS011;3399;52.530;13.304;2023-10-09T01:26:34;4.30;;;2.63;;
6723;SDS011;3399;52.530;13.304;2023-10-09T01:29:07;3.77;;;2.53;;
6723;SDS011;3399;52.530;13.304;2023-10-09T01:31:40;2.77;;;2.50;;
6723;SDS011;3399;52.530;13.304;2023-10-09T01:34:12;2.37;;;2.17;;
6723;SDS011;3399;52.530;13.304;2023-10-09T01:36:37;2.63;;;2.00;;
6723;SDS011;3399;52.530;13.304;2023-10-09T01:39:04;2.60;;;2.33;;
6723;SDS011;3399;52.530;13.304;2023-10-09T01:41:54;7.13;;;3.30;;
6723;SDS011;3399;52.530;13.304;2023-10-09T01:44:27;5.43;;;2.90;;
6723;SDS011;3399;52.530;13.304;2023-10-09T01:47:00;3.30;;;2.47;;
6723;SDS011;3399;52.530;13.304;2023-10-09T01:49:32;7.53;;;3.33;;
6723;SDS011;3399;52.530;13.304;2023-10-09T01:52:02;2.83;;;2.37;;
6723;SDS011;3399;52.530;13.304;2023-10-09T01:54:50;4.53;;;2.70;;
6723;SDS011;3399;52.530;13.304;2023-10-09T01:57:17;4.80;;;2.40;;
6723;SDS011;3399;52.530;13.304;2023-10-09T01:59:50;6.77;;;2.83;;
6723;SDS011;3399;52.530;13.304;2023-10-09T02:02:18;5.17;;;2.80;;
6723;SDS011;3399;52.530;13.304;2023-10-09T02:04:54;3.60;;;2.40;;
6723;SDS011;3399;52.530;13.304;2023-10-09T02:07:34;3.33;;;2.30;;
6723;SDS011;3399;52.530;13.304;2023-10-09T02:13:31;2.87;;;2.30;;
6723;SDS011;3399;52.530;13.304;2023-10-09T02:16:00;2.50;;;2.30;;
6723;SDS011;3399;52.530;13.304;2023-10-09T02:18:39;3.20;;;2.37;;
6723;SDS011;3399;52.530;13.304;2023-10-09T02:21:05;3.50;;;2.17;;
6723;SDS011;3399;52.530;13.304;2023-10-09T02:23:32;5.07;;;2.53;;
6723;SDS011;3399;52.530;13.304;2023-10-09T02:26:09;4.97;;;2.73;;
6723;SDS011;3399;52.530;13.304;2023-10-09T02:28:42;2.63;;;2.43;;
6723;SDS011;3399;52.530;13.304;2023-10-09T02:31:17;3.93;;;2.67;;
6723;SDS011;3399;52.530;13.304;2023-10-09T02:33:47;3.60;;;2.70;;
6723;SDS011;3399;52.530;13.304;2023-10-09T02:36:15;4.10;;;2.47;;
6723;SDS011;3399;52.530;13.304;2023-10-09T02:38:41;5.90;;;3.17;;
6723;SDS011;3399;52.530;13.304;2023-10-09T02:41:07;6.93;;;2.90;;
6723;SDS011;3399;52.530;13.304;2023-10-09T02:43:39;4.03;;;2.77;;
6723;SDS011;3399;52.530;13.304;2023-10-09T02:46:15;4.77;;;3.00;;
6723;SDS011;3399;52.530;13.304;2023-10-09T02:49:01;3.57;;;2.90;;
6723;SDS011;3399;52.530;13.304;2023-10-09T02:51:34;5.50;;;3.27;;
6723;SDS011;3399;52.530;13.304;2023-10-09T02:54:06;3.70;;;2.90;;
6723;SDS011;3399;52.530;13.304;2023-10-09T02:56:48;3.23;;;2.93;;
6723;SDS011;3399;52.530;13.304;2023-10-09T02:59:21;4.47;;;2.97;;
6723;SDS011;3399;52.530;13.304;2023-10-09T03:01:48;7.13;;;3.53;;
6723;SDS011;3399;52.530;13.304;2023-10-09T03:04:14;4.47;;;2.67;;
6723;SDS011;3399;52.530;13.304;2023-10-09T03:06:40;3.40;;;2.83;;
6723;SDS011;3399;52.530;13.304;2023-10-09T03:09:16;2.50;;;2.30;;
6723;SDS011;3399;52.530;13.304;2023-10-09T03:11:46;3.17;;;2.87;;
6723;SDS011;3399;52.530;13.304;2023-10-09T03:14:18;7.23;;;4.80;;
6723;SDS011;3399;52.530;13.304;2023-10-09T03:16:45;4.93;;;4.33;;
6723;SDS011;3399;52.530;13.304;2023-10-09T03:19:13;3.00;;;2.47;;
6723;SDS011;3399;52.530;13.304;2023-10-09T03:21:38;3.50;;;2.80;;
6723;SDS011;3399;52.530;13.304;2023-10-09T03:24:04;5.00;;;2.83;;
6723;SDS011;3399;52.530;13.304;2023-10-09T03:26:31;6.33;;;2.87;;
6723;SDS011;3399;52.530;13.304;2023-10-09T03:28:56;5.67;;;3.30;;
6723;SDS011;3399;52.530;13.304;2023-10-09T03:31:26;2.70;;;2.50;;
6723;SDS011;3399;52.530;13.304;2023-10-09T03:33:52;5.93;;;3.27;;
6723;SDS011;3399;52.530;13.304;2023-10-09T03:36:18;2.93;;;2.50;;
6723;SDS011;3399;52.530;13.304;2023-10-09T03:38:43;3.47;;;3.17;;
6723;SDS011;3399;52.530;13.304;2023-10-09T03:41:09;6.43;;;3.30;;
6723;SDS011;3399;52.530;13.304;2023-10-09T03:43:37;4.43;;;3.00;;
6723;SDS011;3399;52.530;13.304;2023-10-09T03:46:10;4.03;;;2.60;;
6723;SDS011;3399;52.530;13.304;2023-10-09T03:48:47;4.87;;;2.80;;
6723;SDS011;3399;52.530;13.304;2023-10-09T03:51:12;3.67;;;3.33;;
6723;SDS011;3399;52.530;13.304;2023-10-09T03:53:45;5.33;;;2.80;;
6723;SDS011;3399;52.530;13.304;2023-10-09T03:56:12;3.83;;;3.27;;
6723;SDS011;3399;52.530;13.304;2023-10-09T03:58:42;3.90;;;2.40;;
6723;SDS011;3399;52.530;13.304;2023-10-09T04:01:12;3.30;;;3.00;;
6723;SDS011;3399;52.530;13.304;2023-10-09T04:03:47;5.23;;;3.03;;
6723;SDS011;3399;52.530;13.304;2023-10-09T04:06:13;7.47;;;2.90;;
6723;SDS011;3399;52.530;13.304;2023-10-09T04:08:40;3.37;;;2.23;;
6723;SDS011;3399;52.530;13.304;2023-10-09T04:11:12;2.73;;;2.40;;
6723;SDS011;3399;52.530;13.304;2023-10-09T04:13:44;3.60;;;2.67;;
6723;SDS011;3399;52.530;13.304;2023-10-09T04:16:14;3.50;;;2.93;;
6723;SDS011;3399;52.530;13.304;2023-10-09T04:18:59;3.07;;;2.40;;
6723;SDS011;3399;52.530;13.304;2023-10-09T04:21:31;6.23;;;4.83;;
6723;SDS011;3399;52.530;13.304;2023-10-09T04:24:01;7.03;;;3.90;;
6723;SDS011;3399;52.530;13.304;2023-10-09T04:26:45;4.87;;;2.47;;
6723;SDS011;3399;52.530;13.304;2023-10-09T04:29:11;3.63;;;2.60;;
6723;SDS011;3399;52.530;13.304;2023-10-09T04:31:51;3.23;;;2.43;;
6723;SDS011;3399;52.530;13.304;2023-10-09T04:34:24;3.83;;;2.67;;
6723;SDS011;3399;52.530;13.304;2023-10-09T04:36:52;3.70;;;2.40;;
6723;SDS011;3399;52.530;13.304;2023-10-09T04:39:25;6.53;;;2.83;;
6723;SDS011;3399;52.530;13.304;2023-10-09T04:41:54;3.13;;;2.43;;
6723;SDS011;3399;52.530;13.304;2023-10-09T04:44:39;4.67;;;2.97;;
6723;SDS011;3399;52.530;13.304;2023-10-09T04:47:04;5.20;;;2.67;;
6723;SDS011;3399;52.530;13.304;2023-10-09T04:49:39;4.33;;;2.63;;
6723;SDS011;3399;52.530;13.304;2023-10-09T04:52:26;4.30;;;2.87;;
6723;SDS011;3399;52.530;13.304;2023-10-09T04:54:55;3.43;;;3.13;;
6723;SDS011;3399;52.530;13.304;2023-10-09T05:02:49;3.17;;;2.77;;
6723;SDS011;3399;52.530;13.304;2023-10-09T05:05:34;3.17;;;2.57;;
6723;SDS011;3399;52.530;13.304;2023-10-09T05:08:06;3.60;;;2.50;;
6723;SDS011;3399;52.530;13.304;2023-10-09T05:10:54;5.50;;;2.40;;
6723;SDS011;3399;52.530;13.304;2023-10-09T05:13:25;3.80;;;2.63;;
6723;SDS011;3399;52.530;13.304;2023-10-09T05:16:07;3.37;;;2.67;;
6723;SDS011;3399;52.530;13.304;2023-10-09T05:18:54;2.70;;;2.50;;
6723;SDS011;3399;52.530;13.304;2023-10-09T05:21:24;5.57;;;2.80;;
6723;SDS011;3399;52.530;13.304;2023-10-09T05:23:57;3.00;;;2.73;;
6723;SDS011;3399;52.530;13.304;2023-10-09T05:26:44;5.57;;;3.10;;
6723;SDS011;3399;52.530;13.304;2023-10-09T05:29:11;4.20;;;2.47;;
6723;SDS011;3399;52.530;13.304;2023-10-09T05:32:04;2.60;;;2.40;;
6723;SDS011;3399;52.530;13.304;2023-10-09T05:34:43;4.93;;;2.70;;
6723;SDS011;3399;52.530;13.304;2023-10-09T05:37:28;8.20;;;3.37;;
6723;SDS011;3399;52.530;13.304;2023-10-09T05:39:58;3.33;;;3.00;;
6723;SDS011;3399;52.530;13.304;2023-10-09T05:42:47;4.60;;;2.70;;
6723;SDS011;3399;52.530;13.304;2023-10-09T05:45:22;3.27;;;2.93;;
6723;SDS011;3399;52.530;13.304;2023-10-09T05:48:06;3.77;;;3.10;;
6723;SDS011;3399;52.530;13.304;2023-10-09T05:50:52;3.50;;;2.40;;
6723;SDS011;3399;52.530;13.304;2023-10-09T05:53:37;3.00;;;2.80;;
6723;SDS011;3399;52.530;13.304;2023-10-09T05:56:09;3.97;;;2.60;;
6723;SDS011;3399;52.530;13.304;2023-10-09T05:59:13;5.57;;;2.53;;
6723;SDS011;3399;52.530;13.304;2023-10-09T06:02:01;3.87;;;3.20;;
6723;SDS011;3399;52.530;13.304;2023-10-09T06:04:27;3.97;;;2.70;;
6723;SDS011;3399;52.530;13.304;2023-10-09T06:07:14;3.33;;;2.87;;
6723;SDS011;3399;52.530;13.304;2023-10-09T06:09:47;3.90;;;3.00;;
6723;SDS011;3399;52.530;13.304;2023-10-09T06:12:17;4.93;;;2.47;;
6723;SDS011;3399;52.530;13.304;2023-10-09T06:14:58;5.13;;;2.60;;
6723;SDS011;3399;52.530;13.304;2023-10-09T06:17:44;3.20;;;2.90;;
6723;SDS011;3399;52.530;13.304;2023-10-09T06:20:15;4.33;;;2.77;;
6723;SDS011;3399;52.530;13.304;2023-10-09T06:22:59;3.23;;;2.50;;
6723;SDS011;3399;52.530;13.304;2023-10-09T06:25:40;4.90;;;2.40;;
6723;SDS011;3399;52.530;13.304;2023-10-09T06:28:15;3.57;;;2.63;;
6723;SDS011;3399;52.530;13.304;2023-10-09T06:30:43;2.43;;;2.20;;
6723;SDS011;3399;52.530;13.304;2023-10-09T06:33:11;3.77;;;2.67;;
6723;SDS011;3399;52.530;13.304;2023-10-09T06:35:54;2.60;;;2.40;;
6723;SDS011;3399;52.530;13.304;2023-10-09T06:38:20;3.93;;;2.93;;
6723;SDS011;3399;52.530;13.304;2023-10-09T06:40:58;4.27;;;2.57;;
6723;SDS011;3399;52.530;13.304;2023-10-09T06:43:29;7.30;;;2.87;;
6723;SDS011;3399;52.530;13.304;2023-10-09T06:45:57;3.90;;;2.90;;
6723;SDS011;3399;52.530;13.304;2023-10-09T06:48:29;3.00;;;2.60;;
6723;SDS011;3399;52.530;13.304;2023-10-09T06:51:07;2.80;;;2.50;;
6723;SDS011;3399;52.530;13.304;2023-10-09T06:53:40;3.60;;;3.03;;
6723;SDS011;3399;52.530;13.304;2023-10-09T06:58:56;3.70;;;2.87;;
6723;SDS011;3399;52.530;13.304;2023-10-09T07:01:46;3.63;;;2.63;;
6723;SDS011;3399;52.530;13.304;2023-10-09T07:04:16;4.07;;;3.00;;
6723;SDS011;3399;52.530;13.304;2023-10-09T07:06:45;3.30;;;2.87;;
6723;SDS011;3399;52.530;13.304;2023-10-09T07:09:11;4.90;;;2.90;;
6723;SDS011;3399;52.530;13.304;2023-10-09T07:11:41;3.77;;;2.10;;
6723;SDS011;3399;52.530;13.304;2023-10-09T07:14:08;3.07;;;2.77;;
6723;SDS011;3399;52.530;13.304;2023-10-09T07:16:54;3.43;;;3.13;;
6723;SDS011;3399;52.530;13.304;2023-10-09T07:19:29;5.37;;;2.90;;
6723;SDS011;3399;52.530;13.304;2023-10-09T07:21:58;3.20;;;2.80;;
6723;SDS011;3399;52.530;13.304;2023-10-09T07:24:31;2.87;;;2.47;;
6723;SDS011;3399;52.530;13.304;2023-10-09T07:27:08;4.13;;;2.50;;
6723;SDS011;3399;52.530;13.304;2023-10-09T07:29:39;4.87;;;3.33;;
6723;SDS011;3399;52.530;13.304;2023-10-09T07:32:17;3.03;;;2.73;;
6723;SDS011;3399;52.530;13.304;2023-10-09T07:34:46;3.47;;;3.17;;
6723;SDS011;3399;52.530;13.304;2023-10-09T07:37:19;4.43;;;3.27;;
6723;SDS011;3399;52.530;13.304;2023-10-09T07:39:49;4.67;;;3.00;;
6723;SDS011;3399;52.530;13.304;2023-10-09T07:42:22;4.33;;;3.07;;
6723;SDS011;3399;52.530;13.304;2023-10-09T07:45:11;3.70;;;2.77;;
6723;SDS011;3399;52.530;13.304;2023-10-09T07:47:56;3.63;;;3.30;;
6723;SDS011;3399;52.530;13.304;2023-10-09T07:50:25;3.93;;;3.60;;
6723;SDS011;3399;52.530;13.304;2023-10-09T07:53:03;7.53;;;3.93;;
6723;SDS011;3399;52.530;13.304;2023-10-09T07:55:51;6.30;;;3.50;;
6723;SDS011;3399;52.530;13.304;2023-10-09T07:58:26;7.80;;;3.33;;
6723;SDS011;3399;52.530;13.304;2023-10-09T08:00:54;4.37;;;3.27;;
6723;SDS011;3399;52.530;13.304;2023-10-09T08:03:23;5.37;;;4.27;;
6723;SDS011;3399;52.530;13.304;2023-10-09T08:05:50;5.40;;;3.57;;
6723;SDS011;3399;52.530;13.304;2023-10-09T08:08:18;6.33;;;3.27;;
6723;SDS011;3399;52.530;13.304;2023-10-09T08:11:03;3.37;;;2.93;;
6723;SDS011;3399;52.530;13.304;2023-10-09T08:13:50;4.00;;;3.60;;
6723;SDS011;3399;52.530;13.304;2023-10-09T08:16:22;4.33;;;3.30;;
6723;SDS011;3399;52.530;13.304;2023-10-09T08:18:49;4.53;;;3.23;;
6723;SDS011;3399;52.530;13.304;2023-10-09T08:21:19;4.23;;;3.80;;
6723;SDS011;3399;52.530;13.304;2023-10-09T08:23:44;3.37;;;3.07;;
6723;SDS011;3399;52.530;13.304;2023-10-09T08:26:13;5.27;;;4.03;;
6723;SDS011;3399;52.530;13.304;2023-10-09T08:28:42;6.33;;;3.27;;
6723;SDS011;3399;52.530;13.304;2023-10-09T08:31:11;4.70;;;3.40;;
6723;SDS011;3399;52.530;13.304;2023-10-09T08:33:56;5.93;;;3.80;;
6723;SDS011;3399;52.530;13.304;2023-10-09T08:36:26;3.70;;;3.37;;
6723;SDS011;3399;52.530;13.304;2023-10-09T08:39:04;4.20;;;3.80;;
6723;SDS011;3399;52.530;13.304;2023-10-09T08:41:50;5.47;;;4.00;;
6723;SDS011;3399;52.530;13.304;2023-10-09T08:44:20;5.80;;;4.13;;
6723;SDS011;3399;52.530;13.304;2023-10-09T08:46:50;4.57;;;3.80;;
6723;SDS011;3399;52.530;13.304;2023-10-09T08:49:16;6.23;;;3.80;;
6723;SDS011;3399;52.530;13.304;2023-10-09T08:51:43;6.70;;;3.67;;
6723;SDS011;3399;52.530;13.304;2023-10-09T08:54:11;3.87;;;3.47;;
6723;SDS011;3399;52.530;13.304;2023-10-09T08:56:39;5.80;;;3.90;;
6723;SDS011;3399;52.530;13.304;2023-10-09T08:59:14;6.00;;;3.87;;
6723;SDS011;3399;52.530;13.304;2023-10-09T09:01:43;7.40;;;3.77;;
6723;SDS011;3399;52.530;13.304;2023-10-09T09:07:03;3.90;;;3.30;;
6723;SDS011;3399;52.530;13.304;2023-10-09T09:09:29;4.53;;;3.30;;
6723;SDS011;3399;52.530;13.304;2023-10-09T09:11:57;4.57;;;3.50;;
6723;SDS011;3399;52.530;13.304;2023-10-09T09:14:34;5.47;;;3.57;;
6723;SDS011;3399;52.530;13.304;2023-10-09T09:17:02;6.13;;;3.63;;
6723;SDS011;3399;52.530;13.304;2023-10-09T09:19:30;5.43;;;3.27;;
6723;SDS011;3399;52.530;13.304;2023-10-09T09:21:57;3.63;;;3.07;;
6723;SDS011;3399;52.530;13.304;2023-10-09T09:24:36;4.93;;;3.77;;
6723;SDS011;3399;52.530;13.304;2023-10-09T09:27:02;5.23;;;3.87;;
6723;SDS011;3399;52.530;13.304;2023-10-09T09:32:07;4.77;;;3.63;;
6723;SDS011;3399;52.530;13.304;2023-10-09T09:34:52;7.43;;;3.07;;
6723;SDS011;3399;52.530;13.304;2023-10-09T09:37:29;3.63;;;3.27;;
6723;SDS011;3399;52.530;13.304;2023-10-09T09:40:16;6.40;;;3.73;;
6723;SDS011;3399;52.530;13.304;2023-10-09T09:42:58;3.83;;;3.13;;
6723;SDS011;3399;52.530;13.304;2023-10-09T09:45:35;3.83;;;3.47;;
6723;SDS011;3399;52.530;13.304;2023-10-09T09:48:04;3.50;;;3.10;;
6723;SDS011;3399;52.530;13.304;2023-10-09T09:50:38;4.77;;;4.10;;
6723;SDS011;3399;52.530;13.304;2023-10-09T09:53:13;7.47;;;3.57;;
6723;SDS011;3399;52.530;13.304;2023-10-09T09:55:42;5.50;;;3.70;;
6723;SDS011;3399;52.530;13.304;2023-10-09T09:58:17;4.77;;;3.87;;
6723;SDS011;3399;52.530;13.304;2023-10-09T10:00:48;7.20;;;4.37;;
6723;SDS011;3399;52.530;13.304;2023-10-09T10:03:29;6.20;;;4.13;;
6723;SDS011;3399;52.530;13.304;2023-10-09T10:05:58;5.27;;;4.50;;
6723;SDS011;3399;52.530;13.304;2023-10-09T10:08:29;4.10;;;3.70;;
6723;SDS011;3399;52.530;13.304;2023-10-09T10:10:58;4.87;;;4.37;;
6723;SDS011;3399;52.530;13.304;2023-10-09T10:16:08;5.97;;;4.50;;
6723;SDS011;3399;52.530;13.304;2023-10-09T10:18:57;6.23;;;4.57;;
6723;SDS011;3399;52.530;13.304;2023-10-09T10:21:39;5.87;;;4.17;;
6723;SDS011;3399;52.530;13.304;2023-10-09T10:29:50;4.93;;;4.53;;
6723;SDS011;3399;52.530;13.304;2023-10-09T10:32:56;5.77;;;5.20;;
6723;SDS011;3399;52.530;13.304;2023-10-09T10:35:23;5.73;;;4.90;;
6723;SDS011;3399;52.530;13.304;2023-10-09T10:41:15;5.77;;;5.17;;
6723;SDS011;3399;52.530;13.304;2023-10-09T10:43:44;5.93;;;5.33;;
6723;SDS011;3399;52.530;13.304;2023-10-09T10:46:20;6.93;;;5.73;;
6723;SDS011;3399;52.530;13.304;2023-10-09T10:49:00;6.00;;;5.17;;
6723;SDS011;3399;52.530;13.304;2023-10-09T10:51:35;8.97;;;6.60;;
6723;SDS011;3399;52.530;13.304;2023-10-09T10:54:04;6.67;;;5.23;;
6723;SDS011;3399;52.530;13.304;2023-10-09T10:56:50;5.40;;;4.90;;
6723;SDS011;3399;52.530;13.304;2023-10-09T10:59:17;5.93;;;5.03;;
6723;SDS011;3399;52.530;13.304;2023-10-09T11:01:51;7.70;;;5.40;;
6723;SDS011;3399;52.530;13.304;2023-10-09T11:04:19;5.67;;;5.17;;
6723;SDS011;3399;52.530;13.304;2023-10-09T11:07:03;6.13;;;5.10;;
6723;SDS011;3399;52.530;13.304;2023-10-09T11:09:47;6.93;;;5.80;;
6723;SDS011;3399;52.530;13.304;2023-10-09T11:12:44;5.90;;;5.30;;
6723;SDS011;3399;52.530;13.304;2023-10-09T11:15:33;6.83;;;4.97;;
6723;SDS011;3399;52.530;13.304;2023-10-09T11:18:09;6.50;;;5.90;;
6723;SDS011;3399;52.530;13.304;2023-10-09T11:20:49;6.83;;;5.70;;
6723;SDS011;3399;52.530;13.304;2023-10-09T11:23:29;7.57;;;6.03;;
6723;SDS011;3399;52.530;13.304;2023-10-09T11:26:18;6.17;;;5.57;;
6723;SDS011;3399;52.530;13.304;2023-10-09T11:29:09;6.20;;;5.00;;
6723;SDS011;3399;52.530;13.304;2023-10-09T11:32:00;6.50;;;5.67;;
6723;SDS011;3399;52.530;13.304;2023-10-09T11:34:28;6.60;;;6.00;;
6723;SDS011;3399;52.530;13.304;2023-10-09T11:37:11;6.43;;;5.83;;
6723;SDS011;3399;52.530;13.304;2023-10-09T11:39:40;6.50;;;5.87;;
6723;SDS011;3399;52.530;13.304;2023-10-09T11:42:17;7.50;;;6.80;;
6723;SDS011;3399;52.530;13.304;2023-10-09T11:45:03;7.03;;;5.77;;
6723;SDS011;3399;52.530;13.304;2023-10-09T11:47:47;7.00;;;6.23;;
6723;SDS011;3399;52.530;13.304;2023-10-09T11:50:44;7.13;;;6.27;;
6723;SDS011;3399;52.530;13.304;2023-10-09T11:53:41;7.10;;;6.50;;
6723;SDS011;3399;52.530;13.304;2023-10-09T11:56:21;8.43;;;7.63;;
6723;SDS011;3399;52.530;13.304;2023-10-09T11:58:47;9.23;;;6.97;;
6723;SDS011;3399;52.530;13.304;2023-10-09T12:01:15;8.10;;;7.03;;
6723;SDS011;3399;52.530;13.304;2023-10-09T12:03:48;6.80;;;6.20;;
6723;SDS011;3399;52.530;13.304;2023-10-09T12:06:19;7.53;;;5.93;;
6723;SDS011;3399;52.530;13.304;2023-10-09T12:08:49;8.70;;;7.10;;
6723;SDS011;3399;52.530;13.304;2023-10-09T12:11:15;6.00;;;5.50;;
6723;SDS011;3399;52.530;13.304;2023-10-09T12:13:50;10.00;;;7.07;;
6723;SDS011;3399;52.530;13.304;2023-10-09T12:16:21;7.70;;;6.93;;
6723;SDS011;3399;52.530;13.304;2023-10-09T12:18:53;7.80;;;6.77;;
6723;SDS011;3399;52.530;13.304;2023-10-09T12:21:20;7.90;;;7.10;;
6723;SDS011;3399;52.530;13.304;2023-10-09T12:23:46;8.63;;;7.73;;
6723;SDS011;3399;52.530;13.304;2023-10-09T12:28:47;11.63;;;7.40;;
6723;SDS011;3399;52.530;13.304;2023-10-09T12:31:14;7.93;;;7.13;;
6723;SDS011;3399;52.530;13.304;2023-10-09T12:33:44;8.83;;;7.43;;
6723;SDS011;3399;52.530;13.304;2023-10-09T12:36:11;7.73;;;6.57;;
6723;SDS011;3399;52.530;13.304;2023-10-09T12:38:44;7.37;;;6.67;;
6723;SDS011;3399;52.530;13.304;2023-10-09T12:41:15;7.77;;;6.77;;
6723;SDS011;3399;52.530;13.304;2023-10-09T12:43:44;9.10;;;6.93;;
6723;SDS011;3399;52.530;13.304;2023-10-09T12:46:13;6.57;;;5.80;;
6723;SDS011;3399;52.530;13.304;2023-10-09T12:48:42;6.80;;;6.10;;
6723;SDS011;3399;52.530;13.304;2023-10-09T12:51:11;7.53;;;6.53;;
6723;SDS011;3399;52.530;13.304;2023-10-09T12:53:41;7.13;;;6.23;;
6723;SDS011;3399;52.530;13.304;2023-10-09T12:56:10;7.17;;;6.47;;
6723;SDS011;3399;52.530;13.304;2023-10-09T12:58:37;6.90;;;6.30;;
6723;SDS011;3399;52.530;13.304;2023-10-09T13:01:03;7.93;;;6.70;;
6723;SDS011;3399;52.530;13.304;2023-10-09T13:03:36;6.80;;;5.90;;
6723;SDS011;3399;52.530;13.304;2023-10-09T13:06:05;7.97;;;7.17;;
6723;SDS011;3399;52.530;13.304;2023-10-09T13:08:36;6.80;;;6.20;;
6723;SDS011;3399;52.530;13.304;2023-10-09T13:11:06;8.47;;;7.30;;
6723;SDS011;3399;52.530;13.304;2023-10-09T13:13:35;7.40;;;6.80;;
6723;SDS011;3399;52.530;13.304;2023-10-09T13:16:26;9.97;;;7.47;;
6723;SDS011;3399;52.530;13.304;2023-10-09T13:18:53;9.27;;;8.37;;
6723;SDS011;3399;52.530;13.304;2023-10-09T13:21:23;8.47;;;7.57;;
6723;SDS011;3399;52.530;13.304;2023-10-09T13:23:56;9.00;;;8.10;;
6723;SDS011;3399;52.530;13.304;2023-10-09T13:26:22;9.40;;;8.53;;
6723;SDS011;3399;52.530;13.304;2023-10-09T13:28:59;8.57;;;7.77;;
6723;SDS011;3399;52.530;13.304;2023-10-09T13:31:26;13.20;;;6.37;;
6723;SDS011;3399;52.530;13.304;2023-10-09T13:33:55;9.13;;;8.23;;
6723;SDS011;3399;52.530;13.304;2023-10-09T13:36:21;11.27;;;8.37;;
6723;SDS011;3399;52.530;13.304;2023-10-09T13:38:57;9.57;;;8.57;;
6723;SDS011;3399;52.530;13.304;2023-10-09T13:41:23;9.13;;;7.17;;
6723;SDS011;3399;52.530;13.304;2023-10-09T13:43:54;9.67;;;8.67;;
6723;SDS011;3399;52.530;13.304;2023-10-09T13:46:21;10.33;;;8.83;;
6723;SDS011;3399;52.530;13.304;2023-10-09T13:48:48;9.53;;;8.63;;
6723;SDS011;3399;52.530;13.304;2023-10-09T13:51:14;8.10;;;7.13;;
6723;SDS011;3399;52.530;13.304;2023-10-09T13:53:44;8.03;;;6.63;;
6723;SDS011;3399;52.530;13.304;2023-10-09T13:56:19;11.60;;;8.70;;
6723;SDS011;3399;52.530;13.304;2023-10-09T13:58:52;10.47;;;7.37;;
6723;SDS011;3399;52.530;13.304;2023-10-09T14:01:19;10.17;;;9.07;;
6723;SDS011;3399;52.530;13.304;2023-10-09T14:03:52;7.60;;;6.80;;
6723;SDS011;3399;52.530;13.304;2023-10-09T14:06:21;9.37;;;8.40;;
6723;SDS011;3399;52.530;13.304;2023-10-09T14:08:59;9.03;;;8.23;;
6723;SDS011;3399;52.530;13.304;2023-10-09T14:11:34;9.10;;;8.17;;
6723;SDS011;3399;52.530;13.304;2023-10-09T14:14:05;9.40;;;8.10;;
6723;SDS011;3399;52.530;13.304;2023-10-09T14:16:35;9.87;;;8.87;;
6723;SDS011;3399;52.530;13.304;2023-10-09T14:19:01;10.13;;;7.80;;
6723;SDS011;3399;52.530;13.304;2023-10-09T14:21:32;9.90;;;7.43;;
6723;SDS011;3399;52.530;13.304;2023-10-09T14:24:03;7.50;;;6.73;;
6723;SDS011;3399;52.530;13.304;2023-10-09T14:26:41;8.47;;;7.67;;
6723;SDS011;3399;52.530;13.304;2023-10-09T14:29:10;8.73;;;7.87;;
6723;SDS011;3399;52.530;13.304;2023-10-09T14:31:40;9.73;;;8.83;;
6723;SDS011;3399;52.530;13.304;2023-10-09T14:34:05;8.37;;;7.57;;
6723;SDS011;3399;52.530;13.304;2023-10-09T14:36:34;7.77;;;7.03;;
6723;SDS011;3399;52.530;13.304;2023-10-09T14:39:00;11.63;;;9.27;;
6723;SDS011;3399;52.530;13.304;2023-10-09T14:41:26;8.90;;;7.70;;
6723;SDS011;3399;52.530;13.304;2023-10-09T14:43:53;8.97;;;8.10;;
6723;SDS011;3399;52.530;13.304;2023-10-09T14:46:19;8.57;;;7.70;;
6723;SDS011;3399;52.530;13.304;2023-10-09T14:48:55;8.87;;;8.00;;
6723;SDS011;3399;52.530;13.304;2023-10-09T14:51:21;9.20;;;8.20;;
6723;SDS011;3399;52.530;13.304;2023-10-09T14:53:54;10.23;;;8.87;;
6723;SDS011;3399;52.530;13.304;2023-10-09T14:56:22;9.60;;;8.70;;
6723;SDS011;3399;52.530;13.304;2023-10-09T14:58:57;10.30;;;9.20;;
6723;SDS011;3399;52.530;13.304;2023-10-09T15:01:24;10.47;;;9.43;;
6723;SDS011;3399;52.530;13.304;2023-10-09T15:03:50;12.47;;;9.10;;
6723;SDS011;3399;52.530;13.304;2023-10-09T15:06:22;9.67;;;8.77;;
6723;SDS011;3399;52.530;13.304;2023-10-09T15:08:49;10.40;;;9.40;;
6723;SDS011;3399;52.530;13.304;2023-10-09T15:11:15;10.23;;;9.23;;
6723;SDS011;3399;52.530;13.304;2023-10-09T15:13:40;9.77;;;8.83;;
6723;SDS011;3399;52.530;13.304;2023-10-09T15:16:06;9.17;;;8.33;;
6723;SDS011;3399;52.530;13.304;2023-10-09T15:18:32;9.40;;;8.47;;
6723;SDS011;3399;52.530;13.304;2023-10-09T15:20:58;9.43;;;8.53;;
6723;SDS011;3399;52.530;13.304;2023-10-09T15:23:25;8.53;;;7.73;;
6723;SDS011;3399;52.530;13.304;2023-10-09T15:25:51;8.40;;;7.60;;
6723;SDS011;3399;52.530;13.304;2023-10-09T15:28:21;8.80;;;8.00;;
6723;SDS011;3399;52.530;13.304;2023-10-09T15:30:47;9.03;;;8.13;;
6723;SDS011;3399;52.530;13.304;2023-10-09T15:33:15;8.27;;;7.57;;
6723;SDS011;3399;52.530;13.304;2023-10-09T15:35:44;10.43;;;9.37;;
6723;SDS011;3399;52.530;13.304;2023-10-09T15:38:15;8.93;;;7.70;;
6723;SDS011;3399;52.530;13.304;2023-10-09T15:40:41;9.13;;;7.00;;
6723;SDS011;3399;52.530;13.304;2023-10-09T15:43:11;8.67;;;7.77;;
6723;SDS011;3399;52.530;13.304;2023-10-09T15:45:44;9.20;;;8.30;;
6723;SDS011;3399;52.530;13.304;2023-10-09T15:48:13;8.80;;;8.00;;
6723;SDS011;3399;52.530;13.304;2023-10-09T15:50:40;8.00;;;7.30;;
6723;SDS011;3399;52.530;13.304;2023-10-09T15:53:13;7.87;;;7.17;;
6723;SDS011;3399;52.530;13.304;2023-10-09T15:55:41;10.23;;;9.07;;
6723;SDS011;3399;52.530;13.304;2023-10-09T15:58:08;8.37;;;7.67;;
6723;SDS011;3399;52.530;13.304;2023-10-09T16:00:33;8.77;;;7.20;;
6723;SDS011;3399;52.530;13.304;2023-10-09T16:02:59;8.87;;;8.00;;
6723;SDS011;3399;52.530;13.304;2023-10-09T16:05:25;9.50;;;8.53;;